createdAt,value
2023-04-20T00:00:32.676Z,39.79
2023-04-20T00:03:01.844Z,40.46
2023-04-20T00:05:32.054Z,41.05
2023-04-20T00:08:01.365Z,40.95
2023-04-20T00:10:29.565Z,41.98
2023-04-20T00:12:58.977Z,41.05
2023-04-20T00:15:27.021Z,41.50
2023-04-20T00:17:55.123Z,40.33
2023-04-20T00:20:34.590Z,39.70
2023-04-20T00:23:03.648Z,42.31
2023-04-20T00:25:32.353Z,40.84
2023-04-20T00:28:01.781Z,42.58
2023-04-20T00:30:30.011Z,42.18
2023-04-20T00:32:58.764Z,41.21
2023-04-20T00:35:26.871Z,42.42
2023-04-20T00:38:05.068Z,42.33
2023-04-20T00:40:33.533Z,42.87
2023-04-20T00:43:11.961Z,40.71
2023-04-20T00:45:40.143Z,40.78
2023-04-20T00:48:09.030Z,39.59
2023-04-20T00:50:39.050Z,41.13
2023-04-20T00:53:09.115Z,40.52
2023-04-20T00:55:38.890Z,39.70
2023-04-20T00:58:07.716Z,39.20
2023-04-20T01:00:37.169Z,41.40
2023-04-20T01:03:06.328Z,39.90
2023-04-20T01:05:34.751Z,39.39
2023-04-20T01:08:03.503Z,41.37
2023-04-20T01:10:31.947Z,41.51
2023-04-20T01:12:59.919Z,39.96
2023-04-20T01:15:27.990Z,40.58
2023-04-20T01:17:57.959Z,41.00
2023-04-20T01:20:26.130Z,40.68
2023-04-20T01:22:56.251Z,39.82
2023-04-20T01:25:24.527Z,41.29
2023-04-20T01:27:54.576Z,39.76
2023-04-20T01:30:23.883Z,41.97
2023-04-20T01:32:52.523Z,41.13
2023-04-20T01:35:20.745Z,40.81
2023-04-20T01:37:48.803Z,40.59
2023-04-20T01:40:18.164Z,41.00
2023-04-20T01:42:46.143Z,40.26
2023-04-20T01:45:14.158Z,39.76
2023-04-20T01:47:42.176Z,39.88
2023-04-20T01:50:13.548Z,40.51
2023-04-20T01:52:41.452Z,41.96
2023-04-20T01:55:11.666Z,40.88
2023-04-20T01:57:40.855Z,41.34
2023-04-20T02:00:10.345Z,43.31
2023-04-20T02:02:47.020Z,42.37
2023-04-20T02:05:16.778Z,41.35
2023-04-20T02:07:44.627Z,40.93
2023-04-20T02:10:12.589Z,40.70
2023-04-20T02:12:41.881Z,40.94
2023-04-20T02:15:10.476Z,39.60
2023-04-20T02:17:38.465Z,38.90
2023-04-20T02:20:09.167Z,40.50
2023-04-20T02:22:37.380Z,41.23
2023-04-20T02:25:07.658Z,40.57
2023-04-20T02:27:35.656Z,41.99
2023-04-20T02:30:08.348Z,40.54
2023-04-20T02:32:36.742Z,40.96
2023-04-20T02:35:05.768Z,41.60
2023-04-20T02:37:33.701Z,41.43
2023-04-20T02:40:01.789Z,42.96
2023-04-20T02:42:30.777Z,43.61
2023-04-20T02:45:00.488Z,42.20
2023-04-20T02:47:29.831Z,42.32
2023-04-20T02:49:57.934Z,40.76
2023-04-20T02:52:26.162Z,41.86
2023-04-20T02:54:57.787Z,41.68
2023-04-20T02:57:26.682Z,42.40
2023-04-20T02:59:56.599Z,42.53
2023-04-20T03:02:40.755Z,40.20
2023-04-20T03:05:13.360Z,41.65
2023-04-20T03:07:45.792Z,41.52
2023-04-20T03:10:14.480Z,41.15
2023-04-20T03:12:58.080Z,41.53
2023-04-20T03:15:44.768Z,40.37
2023-04-20T03:18:26.526Z,41.12
2023-04-20T03:20:55.347Z,41.58
2023-04-20T03:23:23.644Z,42.16
2023-04-20T03:25:52.313Z,40.51
2023-04-20T03:28:43.460Z,39.90
2023-04-20T03:31:15.100Z,39.96
2023-04-20T03:33:44.928Z,39.60
2023-04-20T03:36:13.221Z,40.66
2023-04-20T03:38:41.467Z,41.21
2023-04-20T03:41:09.449Z,41.86
2023-04-20T03:43:37.695Z,40.28
2023-04-20T03:46:05.698Z,42.13
2023-04-20T03:48:34.005Z,41.94
2023-04-20T03:51:03.442Z,41.52
2023-04-20T03:53:32.621Z,40.11
2023-04-20T03:56:01.799Z,40.12
2023-04-20T03:58:29.892Z,41.54
2023-04-20T04:01:09.741Z,41.13
2023-04-20T04:03:41.541Z,41.03
2023-04-20T04:06:12.757Z,40.21
2023-04-20T04:08:41.781Z,39.38
2023-04-20T04:11:09.770Z,39.02
2023-04-20T04:13:37.618Z,39.34
2023-04-20T04:16:08.387Z,37.91
2023-04-20T04:18:36.857Z,39.42
2023-04-20T04:21:12.032Z,38.09
2023-04-20T04:23:43.458Z,39.93
2023-04-20T04:26:24.758Z,42.13
2023-04-20T04:28:53.892Z,40.47
2023-04-20T04:31:23.651Z,41.64
2023-04-20T04:33:52.473Z,42.48
2023-04-20T04:36:30.701Z,40.85
2023-04-20T04:39:00.151Z,40.52
2023-04-20T04:41:29.203Z,40.32
2023-04-20T04:44:08.901Z,39.59
2023-04-20T04:46:37.194Z,41.40
2023-04-20T04:49:05.886Z,40.25
2023-04-20T04:51:35.270Z,41.86
2023-04-20T04:54:03.352Z,41.26
2023-04-20T04:56:31.220Z,41.56
2023-04-20T04:58:59.206Z,41.38
2023-04-20T05:01:27.141Z,40.23
2023-04-20T05:03:55.370Z,41.20
2023-04-20T05:06:23.585Z,39.78
2023-04-20T05:08:52.830Z,40.70
2023-04-20T05:11:20.798Z,39.53
2023-04-20T05:13:49.911Z,40.08
2023-04-20T05:16:17.828Z,40.53
2023-04-20T05:18:45.731Z,40.54
2023-04-20T05:21:13.639Z,39.95
2023-04-20T05:23:42.061Z,40.69
2023-04-20T05:26:11.594Z,41.09
2023-04-20T05:28:43.219Z,40.58
2023-04-20T05:31:11.302Z,40.47
2023-04-20T05:33:39.443Z,41.16
2023-04-20T05:36:09.982Z,40.23
2023-04-20T05:38:38.030Z,41.29
2023-04-20T05:41:06.516Z,39.70
2023-04-20T05:43:35.944Z,40.02
2023-04-20T05:46:03.835Z,38.85
2023-04-20T05:48:31.897Z,39.31
2023-04-20T05:51:00.078Z,38.03
2023-04-20T05:53:28.031Z,38.24
2023-04-20T05:55:56.185Z,39.03
2023-04-20T05:58:24.757Z,40.26
2023-04-20T06:00:54.720Z,37.72
2023-04-20T06:03:22.810Z,39.80
2023-04-20T06:05:51.261Z,41.15
2023-04-20T06:08:19.488Z,42.17
2023-04-20T06:10:47.460Z,42.48
2023-04-20T06:13:15.436Z,41.03
2023-04-20T06:15:43.579Z,40.45
2023-04-20T06:18:13.092Z,38.43
2023-04-20T06:20:41.087Z,35.17
2023-04-20T06:23:09.208Z,36.80
2023-04-20T06:25:37.384Z,34.93
2023-04-20T06:28:05.574Z,34.92
2023-04-20T06:30:33.806Z,35.09
2023-04-20T06:33:02.155Z,33.96
2023-04-20T06:35:31.534Z,36.58
2023-04-20T06:37:59.589Z,35.87
2023-04-20T06:40:28.134Z,37.74
2023-04-20T06:42:56.383Z,37.49
2023-04-20T06:45:24.523Z,36.87
2023-04-20T06:47:52.578Z,38.19
2023-04-20T06:50:20.783Z,37.93
2023-04-20T06:52:50.614Z,36.87
2023-04-20T06:55:19.119Z,39.55
2023-04-20T06:57:47.512Z,39.58
2023-04-20T07:00:16.567Z,38.00
2023-04-20T07:02:46.475Z,35.88
2023-04-20T07:05:14.838Z,37.15
2023-04-20T07:07:43.375Z,36.80
2023-04-20T07:10:14.637Z,35.97
2023-04-20T07:12:44.085Z,36.70
2023-04-20T07:15:12.701Z,36.53
2023-04-20T07:17:40.756Z,33.93
2023-04-20T07:20:10.026Z,33.65
2023-04-20T07:22:38.974Z,35.00
2023-04-20T07:25:08.862Z,36.90
2023-04-20T07:27:39.332Z,36.05
2023-04-20T07:30:09.156Z,38.35
2023-04-20T07:32:38.424Z,37.96
2023-04-20T07:35:07.217Z,38.26
2023-04-20T07:37:35.271Z,38.30
2023-04-20T07:40:06.138Z,38.46
2023-04-20T07:42:34.855Z,35.67
2023-04-20T07:45:04.835Z,36.24
2023-04-20T07:47:34.151Z,35.34
2023-04-20T07:50:01.972Z,34.26
2023-04-20T07:52:30.047Z,33.45
2023-04-20T07:54:59.563Z,33.80
2023-04-20T07:57:28.169Z,32.61
2023-04-20T07:59:56.191Z,35.63
2023-04-20T08:02:25.605Z,37.83
2023-04-20T08:04:54.179Z,36.95
2023-04-20T08:07:22.537Z,34.00
2023-04-20T08:09:50.814Z,33.36
2023-04-20T08:12:18.750Z,32.07
2023-04-20T08:14:46.639Z,31.63
2023-04-20T08:17:14.573Z,31.42
2023-04-20T08:19:45.960Z,30.42
2023-04-20T08:22:14.301Z,30.32
2023-04-20T08:24:42.336Z,31.91
2023-04-20T08:27:10.141Z,32.10
2023-04-20T08:29:39.564Z,31.66
2023-04-20T08:32:09.137Z,31.55
2023-04-20T08:34:37.439Z,36.01
2023-04-20T08:37:07.205Z,35.32
2023-04-20T08:39:35.135Z,34.24
2023-04-20T08:42:03.322Z,33.26
2023-04-20T08:44:31.336Z,32.30
2023-04-20T08:47:01.605Z,31.49
2023-04-20T08:49:30.839Z,30.69
2023-04-20T08:51:58.731Z,33.34
2023-04-20T08:54:28.317Z,33.11
2023-04-20T08:56:56.885Z,33.33
2023-04-20T08:59:24.672Z,33.31
2023-04-20T09:01:52.693Z,30.80
2023-04-20T09:04:23.262Z,30.54
2023-04-20T09:06:54.029Z,29.15
2023-04-20T09:09:23.812Z,28.86
2023-04-20T09:12:03.629Z,28.22
2023-04-20T09:14:32.150Z,28.88
2023-04-20T09:17:02.155Z,28.53
2023-04-20T09:19:31.291Z,29.32
2023-04-20T09:22:01.242Z,29.27
2023-04-20T09:24:33.705Z,29.63
2023-04-20T09:27:04.307Z,28.40
2023-04-20T09:29:32.302Z,28.61
2023-04-20T09:32:00.283Z,28.43
2023-04-20T09:34:28.228Z,26.33
2023-04-20T09:36:57.775Z,26.31
2023-04-20T09:39:26.860Z,26.71
2023-04-20T09:41:54.793Z,26.92
2023-04-20T09:44:23.992Z,27.00
2023-04-20T09:46:52.264Z,27.53
2023-04-20T09:49:21.340Z,26.83
2023-04-20T09:51:50.713Z,27.19
2023-04-20T09:54:18.680Z,26.18
2023-04-20T09:56:48.592Z,27.84
2023-04-20T09:59:20.222Z,27.44
2023-04-20T10:01:50.062Z,27.07
2023-04-20T10:04:18.255Z,27.20
2023-04-20T10:06:54.780Z,28.12
2023-04-20T10:09:24.469Z,28.47
2023-04-20T10:11:54.606Z,26.20
2023-04-20T10:14:25.569Z,26.47
2023-04-20T10:17:02.457Z,27.42
2023-04-20T10:19:40.961Z,27.01
2023-04-20T10:22:10.048Z,26.20
2023-04-20T10:24:39.070Z,25.61
2023-04-20T10:27:18.139Z,25.29
2023-04-20T10:29:46.458Z,28.08
2023-04-20T10:32:25.273Z,27.98
2023-04-20T10:35:04.827Z,28.72
2023-04-20T10:37:32.866Z,28.58
2023-04-20T10:40:01.704Z,28.68
2023-04-20T10:42:30.669Z,26.18
2023-04-20T10:44:58.886Z,26.53
2023-04-20T10:47:34.239Z,27.12
2023-04-20T10:50:10.235Z,27.84
2023-04-20T10:52:40.028Z,28.10
2023-04-20T10:55:19.174Z,27.12
2023-04-20T10:57:47.151Z,26.30
2023-04-20T11:00:17.797Z,28.67
2023-04-20T11:02:51.707Z,26.10
2023-04-20T11:05:22.557Z,27.46
2023-04-20T11:07:54.550Z,27.16
2023-04-20T11:10:23.484Z,25.70
2023-04-20T11:12:52.157Z,25.90
2023-04-20T11:15:20.032Z,25.33
2023-04-20T11:17:47.891Z,25.47
2023-04-20T11:20:18.556Z,26.24
2023-04-20T11:22:57.831Z,27.05
2023-04-20T11:25:25.933Z,28.32
2023-04-20T11:27:54.082Z,28.60
2023-04-20T11:30:22.001Z,27.50
2023-04-20T11:32:55.851Z,26.33
2023-04-20T11:35:25.394Z,25.59
2023-04-20T11:37:54.429Z,26.12
2023-04-20T11:40:22.628Z,25.16
2023-04-20T11:42:50.794Z,25.36
2023-04-20T11:45:18.945Z,25.66
2023-04-20T11:47:47.387Z,26.52
2023-04-20T11:50:15.426Z,25.86
2023-04-20T11:52:44.845Z,25.77
2023-04-20T11:55:12.751Z,25.05
2023-04-20T11:57:40.915Z,26.11
2023-04-20T12:00:10.314Z,26.81
2023-04-20T12:02:44.029Z,25.70
2023-04-20T12:05:12.519Z,25.32
2023-04-20T12:07:40.548Z,26.25
2023-04-20T12:10:10.814Z,25.43
2023-04-20T12:12:39.115Z,26.66
2023-04-20T12:15:08.265Z,26.24
2023-04-20T12:17:36.244Z,26.56
2023-04-20T12:20:06.146Z,24.78
2023-04-20T12:22:34.330Z,25.78
2023-04-20T12:25:02.189Z,25.61
2023-04-20T12:27:31.426Z,25.84
2023-04-20T12:29:59.289Z,26.89
2023-04-20T12:32:27.191Z,27.10
2023-04-20T12:34:55.204Z,27.45
2023-04-20T12:37:23.130Z,25.95
2023-04-20T12:39:51.343Z,25.21
2023-04-20T12:42:19.496Z,25.44
2023-04-20T12:44:48.717Z,25.71
2023-04-20T12:47:16.568Z,24.80
2023-04-20T12:49:44.481Z,24.29
2023-04-20T12:52:12.389Z,24.14
2023-04-20T12:54:42.709Z,24.59
2023-04-20T12:57:11.933Z,24.68
2023-04-20T12:59:39.775Z,24.77
2023-04-20T13:02:09.192Z,24.62
2023-04-20T13:04:37.219Z,24.52
2023-04-20T13:07:05.154Z,24.80
2023-04-20T13:09:33.164Z,23.94
2023-04-20T13:12:01.301Z,23.28
2023-04-20T13:14:29.242Z,24.89
2023-04-20T13:16:57.360Z,26.45
2023-04-20T13:19:26.908Z,23.48
2023-04-20T13:21:54.799Z,22.63
2023-04-20T13:24:22.776Z,22.56
2023-04-20T13:26:52.771Z,22.52
2023-04-20T13:29:21.141Z,22.15
2023-04-20T13:31:49.283Z,22.14
2023-04-20T13:34:17.646Z,22.07
2023-04-20T13:36:47.336Z,23.48
2023-04-20T13:39:15.559Z,22.00
2023-04-20T13:41:43.553Z,23.25
2023-04-20T13:44:15.870Z,24.00
2023-04-20T13:46:44.725Z,26.13
2023-04-20T13:49:13.500Z,25.27
2023-04-20T13:51:41.884Z,24.49
2023-04-20T13:54:11.137Z,23.94
2023-04-20T13:56:39.008Z,24.64
2023-04-20T13:59:09.069Z,26.07
2023-04-20T14:01:37.464Z,25.22
2023-04-20T14:04:05.985Z,25.01
2023-04-20T14:06:34.039Z,25.56
2023-04-20T14:09:02.182Z,28.61
2023-04-20T14:11:31.876Z,29.93
2023-04-20T14:14:00.194Z,29.51
2023-04-20T14:16:28.610Z,31.01
2023-04-20T14:18:56.842Z,31.30
2023-04-20T14:21:24.704Z,32.99
2023-04-20T14:23:53.460Z,33.94
2023-04-20T14:26:21.683Z,35.05
2023-04-20T14:28:52.604Z,32.75
2023-04-20T14:31:24.067Z,31.82
2023-04-20T14:33:52.057Z,30.70
2023-04-20T14:36:20.486Z,30.79
2023-04-20T14:38:48.487Z,31.40
2023-04-20T14:41:16.988Z,30.49
2023-04-20T14:43:45.195Z,28.46
2023-04-20T14:46:14.452Z,29.34
2023-04-20T14:48:42.806Z,30.55
2023-04-20T14:51:10.815Z,31.64
2023-04-20T14:53:38.719Z,33.32
2023-04-20T14:56:07.126Z,33.49
2023-04-20T14:58:36.021Z,33.01
2023-04-20T15:01:03.970Z,32.31
2023-04-20T15:03:33.470Z,33.36
2023-04-20T15:06:03.632Z,35.71
2023-04-20T15:08:31.581Z,34.69
2023-04-20T15:10:59.455Z,34.65
2023-04-20T15:13:27.500Z,35.42
2023-04-20T15:15:56.006Z,35.32
2023-04-20T15:18:24.017Z,36.54
2023-04-20T15:20:53.561Z,34.83
2023-04-20T15:23:22.062Z,34.46
2023-04-20T15:25:49.953Z,34.20
2023-04-20T15:28:18.010Z,34.34
2023-04-20T15:30:48.742Z,36.25
2023-04-20T15:33:16.812Z,37.13
2023-04-20T15:35:44.883Z,35.66
2023-04-20T15:38:14.145Z,34.40
2023-04-20T15:40:42.171Z,33.77
2023-04-20T15:43:10.109Z,35.56
2023-04-20T15:45:38.044Z,36.74
2023-04-20T15:48:06.510Z,37.15
2023-04-20T15:50:35.486Z,38.21
2023-04-20T15:53:03.937Z,38.50
2023-04-20T15:55:35.642Z,38.05
2023-04-20T15:58:03.668Z,40.05
2023-04-20T16:00:31.646Z,41.14
2023-04-20T16:03:01.443Z,39.07
2023-04-20T16:05:29.737Z,39.60
2023-04-20T16:07:57.962Z,40.55
2023-04-20T16:10:27.283Z,40.41
2023-04-20T16:12:58.071Z,41.04
2023-04-20T16:15:26.059Z,41.75
2023-04-20T16:17:54.381Z,40.77
2023-04-20T16:20:22.570Z,41.48
2023-04-20T16:22:50.468Z,40.98
2023-04-20T16:25:22.836Z,39.92
2023-04-20T16:27:52.009Z,39.79
2023-04-20T16:30:21.730Z,39.30
2023-04-20T16:32:49.928Z,39.63
2023-04-20T16:35:18.476Z,40.29
2023-04-20T16:37:46.934Z,39.94
2023-04-20T16:40:15.019Z,39.85
2023-04-20T16:42:43.154Z,40.68
2023-04-20T16:45:11.421Z,38.80
2023-04-20T16:47:41.282Z,40.68
2023-04-20T16:50:10.143Z,40.06
2023-04-20T16:52:38.243Z,40.45
2023-04-20T16:55:07.240Z,40.39
2023-04-20T16:57:36.166Z,39.52
2023-04-20T17:00:06.568Z,39.48
2023-04-20T17:02:36.460Z,36.75
2023-04-20T17:05:07.748Z,37.37
2023-04-20T17:07:37.525Z,37.56
2023-04-20T17:10:07.083Z,38.71
2023-04-20T17:12:35.316Z,38.73
2023-04-20T17:15:03.460Z,37.22
2023-04-20T17:17:32.751Z,35.16
2023-04-20T17:20:01.269Z,36.76
2023-04-20T17:22:30.704Z,36.38
2023-04-20T17:24:58.988Z,36.30
2023-04-20T17:27:27.286Z,36.06
2023-04-20T17:29:56.054Z,37.23
2023-04-20T17:32:24.778Z,37.65
2023-04-20T17:34:53.946Z,38.06
2023-04-20T17:37:24.463Z,37.49
2023-04-20T17:39:54.124Z,37.38
2023-04-20T17:42:25.035Z,36.96
2023-04-20T17:44:54.076Z,37.68
2023-04-20T17:47:22.730Z,37.22
2023-04-20T17:49:51.093Z,36.62
2023-04-20T17:52:22.300Z,37.69
2023-04-20T17:54:51.128Z,37.51
2023-04-20T17:57:20.916Z,36.85
2023-04-20T17:59:50.761Z,37.73
2023-04-20T18:02:19.060Z,37.36
2023-04-20T18:04:52.561Z,37.83
2023-04-20T18:07:22.221Z,37.79
2023-04-20T18:09:51.095Z,39.85
2023-04-20T18:12:21.308Z,38.31
2023-04-20T18:14:49.609Z,38.80
2023-04-20T18:17:18.248Z,37.63
2023-04-20T18:19:46.695Z,38.33
2023-04-20T18:22:21.491Z,39.35
2023-04-20T18:24:49.931Z,39.17
2023-04-20T18:27:18.493Z,37.86
2023-04-20T18:29:49.837Z,37.52
2023-04-20T18:32:18.223Z,37.72
2023-04-20T18:34:46.636Z,37.71
2023-04-20T18:37:21.362Z,36.59
2023-04-20T18:39:49.633Z,36.47
2023-04-20T18:42:20.310Z,36.92
2023-04-20T18:44:51.123Z,36.63
2023-04-20T18:47:20.949Z,35.36
2023-04-20T18:49:49.158Z,35.75
2023-04-20T18:52:17.410Z,36.54
2023-04-20T18:54:46.914Z,35.93
2023-04-20T18:57:15.059Z,35.40
2023-04-20T18:59:43.252Z,37.10
2023-04-20T19:02:13.577Z,37.49
2023-04-20T19:04:43.934Z,37.67
2023-04-20T19:07:14.107Z,37.51
2023-04-20T19:09:42.219Z,36.05
2023-04-20T19:12:10.495Z,36.50
2023-04-20T19:14:38.650Z,36.92
2023-04-20T19:17:08.479Z,36.31
2023-04-20T19:19:38.043Z,36.98
2023-04-20T19:22:06.174Z,37.68
2023-04-20T19:24:34.485Z,36.92
2023-04-20T19:27:03.279Z,36.20
2023-04-20T19:29:32.826Z,37.21
2023-04-20T19:32:00.980Z,37.04
2023-04-20T19:34:29.246Z,37.10
2023-04-20T19:37:00.483Z,38.12
2023-04-20T19:39:29.054Z,37.54
2023-04-20T19:41:57.632Z,37.64
2023-04-20T19:44:25.533Z,38.33
2023-04-20T19:46:53.746Z,37.34
2023-04-20T19:49:22.070Z,36.46
2023-04-20T19:51:50.139Z,37.88
2023-04-20T19:54:19.762Z,38.64
2023-04-20T19:56:47.731Z,37.74
2023-04-20T19:59:15.904Z,36.60
2023-04-20T20:01:44.172Z,36.46
2023-04-20T20:04:12.693Z,37.01
2023-04-20T20:06:40.767Z,37.03
2023-04-20T20:09:08.643Z,37.83
2023-04-20T20:11:37.839Z,36.91
2023-04-20T20:14:05.670Z,37.62
2023-04-20T20:16:34.149Z,37.02
2023-04-20T20:19:01.993Z,36.60
2023-04-20T20:21:29.807Z,36.09
2023-04-20T20:23:57.685Z,36.08
2023-04-20T20:26:25.574Z,35.70
2023-04-20T20:28:54.856Z,36.35
2023-04-20T20:31:22.740Z,36.26
2023-04-20T20:33:51.041Z,36.74
2023-04-20T20:36:18.891Z,36.80
2023-04-20T20:38:47.270Z,37.06
2023-04-20T20:41:16.340Z,36.48
2023-04-20T20:43:45.677Z,37.09
2023-04-20T20:46:15.061Z,37.63
2023-04-20T20:48:43.101Z,38.21
2023-04-20T20:51:11.653Z,38.48
2023-04-20T20:53:39.549Z,37.43
2023-04-20T20:56:07.666Z,37.48
2023-04-20T20:58:35.502Z,38.19
2023-04-20T21:01:03.534Z,38.15
2023-04-20T21:03:32.984Z,39.50
2023-04-20T21:06:01.010Z,38.72
2023-04-20T21:08:28.876Z,38.48
2023-04-20T21:10:56.733Z,39.49
2023-04-20T21:13:25.046Z,40.65
2023-04-20T21:15:53.033Z,38.82
2023-04-20T21:18:21.052Z,39.85
2023-04-20T21:20:50.480Z,39.97
2023-04-20T21:23:18.434Z,40.62
2023-04-20T21:25:46.252Z,41.15
2023-04-20T21:28:14.145Z,39.84
2023-04-20T21:30:41.937Z,39.82
2023-04-20T21:33:09.989Z,40.51
2023-04-20T21:35:37.982Z,41.58
2023-04-20T21:38:07.389Z,41.23
2023-04-20T21:40:35.747Z,41.44
2023-04-20T21:43:03.884Z,40.89
2023-04-20T21:45:31.803Z,41.65
2023-04-20T21:47:59.746Z,41.94
2023-04-20T21:50:28.601Z,42.70
2023-04-20T21:52:56.501Z,42.79
2023-04-20T21:55:25.799Z,43.55
2023-04-20T21:57:53.629Z,42.97
2023-04-20T22:00:21.775Z,42.37
2023-04-20T22:02:50.536Z,43.49
2023-04-20T22:05:18.699Z,43.89
2023-04-20T22:07:46.893Z,43.67
2023-04-20T22:10:15.190Z,43.00
2023-04-20T22:12:44.563Z,42.17
2023-04-20T22:15:14.788Z,45.01
2023-04-20T22:17:45.438Z,44.41
2023-04-20T22:20:14.741Z,45.70
2023-04-20T22:22:43.027Z,43.71
2023-04-20T22:25:11.692Z,45.25
2023-04-20T22:27:39.625Z,45.28
2023-04-20T22:30:10.176Z,45.87
2023-04-20T22:32:38.641Z,46.29
2023-04-20T22:35:07.824Z,47.35
2023-04-20T22:37:36.402Z,46.35
2023-04-20T22:40:05.898Z,47.78
2023-04-20T22:42:34.723Z,47.00
2023-04-20T22:45:02.762Z,48.10
2023-04-20T22:47:32.379Z,47.02
2023-04-20T22:50:00.364Z,46.38
2023-04-20T22:52:28.135Z,44.57
2023-04-20T22:54:56.028Z,43.10
2023-04-20T22:57:24.207Z,45.73
2023-04-20T22:59:52.111Z,45.97
2023-04-20T23:02:20.130Z,46.41
2023-04-20T23:04:52.071Z,46.24
2023-04-20T23:07:21.193Z,46.48
2023-04-20T23:09:49.226Z,46.43
2023-04-20T23:12:17.516Z,45.73
2023-04-20T23:14:45.577Z,47.29
2023-04-20T23:17:13.708Z,47.26
2023-04-20T23:19:41.763Z,46.63
2023-04-20T23:22:10.980Z,45.68
2023-04-20T23:24:38.825Z,47.41
2023-04-20T23:27:06.800Z,47.95
2023-04-20T23:29:34.753Z,47.85
2023-04-20T23:32:02.921Z,48.13
2023-04-20T23:34:31.430Z,48.02
2023-04-20T23:36:59.400Z,47.58
2023-04-20T23:39:28.772Z,46.32
2023-04-20T23:41:57.792Z,46.31
2023-04-20T23:44:25.837Z,45.31
2023-04-20T23:46:53.714Z,44.75
2023-04-20T23:49:21.784Z,45.63
2023-04-20T23:51:50.969Z,45.97
2023-04-20T23:54:19.155Z,45.69
2023-04-20T23:56:48.381Z,45.89
2023-04-20T23:59:16.384Z,45.00
